createdAt,value
2023-05-16T00:02:11.964Z,12.84
2023-05-16T00:04:39.543Z,12.80
2023-05-16T00:07:07.996Z,12.77
2023-05-16T00:09:35.760Z,12.75
2023-05-16T00:12:04.348Z,12.72
2023-05-16T00:14:31.892Z,12.68
2023-05-16T00:17:00.926Z,12.64
2023-05-16T00:19:29.921Z,12.60
2023-05-16T00:21:57.497Z,12.56
2023-05-16T00:24:25.772Z,12.54
2023-05-16T00:26:53.237Z,12.50
2023-05-16T00:29:21.853Z,12.48
2023-05-16T00:31:49.449Z,12.45
2023-05-16T00:34:21.155Z,12.43
2023-05-16T00:36:50.035Z,12.40
2023-05-16T00:39:17.567Z,12.36
2023-05-16T00:41:45.740Z,12.32
2023-05-16T00:44:13.315Z,12.29
2023-05-16T00:46:41.004Z,12.26
2023-05-16T00:49:09.062Z,12.22
2023-05-16T00:51:36.657Z,12.19
2023-05-16T00:54:04.234Z,12.14
2023-05-16T00:56:32.153Z,12.11
2023-05-16T00:59:00.143Z,12.08
2023-05-16T01:01:28.055Z,12.04
2023-05-16T01:03:55.621Z,12.00
2023-05-16T01:06:24.781Z,11.96
2023-05-16T01:08:52.318Z,11.93
2023-05-16T01:11:36.203Z,11.92
2023-05-16T01:14:12.408Z,11.92
2023-05-16T01:16:46.088Z,11.93
2023-05-16T01:19:43.016Z,11.92
2023-05-16T01:22:16.189Z,11.91
2023-05-16T01:24:56.399Z,11.90
2023-05-16T01:27:23.911Z,11.90
2023-05-16T01:29:56.028Z,11.89
2023-05-16T01:32:24.436Z,11.89
2023-05-16T01:34:52.032Z,11.89
2023-05-16T01:37:24.553Z,11.89
2023-05-16T01:40:02.284Z,11.89
2023-05-16T01:42:30.439Z,11.88
2023-05-16T01:45:07.112Z,11.86
2023-05-16T01:47:36.636Z,11.84
2023-05-16T01:50:14.091Z,11.83
2023-05-16T01:52:50.834Z,11.82
2023-05-16T01:55:48.095Z,11.82
2023-05-16T01:58:17.237Z,11.84
2023-05-16T02:00:44.730Z,11.86
2023-05-16T02:03:12.615Z,11.87
2023-05-16T02:05:40.344Z,11.89
2023-05-16T02:08:08.678Z,11.89
2023-05-16T02:10:36.636Z,11.88
2023-05-16T02:13:04.185Z,11.88
2023-05-16T02:15:32.412Z,11.89
2023-05-16T02:18:00.334Z,11.87
2023-05-16T02:20:27.977Z,11.87
2023-05-16T02:22:55.667Z,11.87
2023-05-16T02:25:23.594Z,11.87
2023-05-16T02:27:51.316Z,11.88
2023-05-16T02:30:18.922Z,11.88
2023-05-16T02:32:48.663Z,11.88
2023-05-16T02:35:17.568Z,11.89
2023-05-16T02:37:44.976Z,11.90
2023-05-16T02:40:13.206Z,11.91
2023-05-16T02:42:41.128Z,11.92
2023-05-16T02:45:10.436Z,11.94
2023-05-16T02:47:37.912Z,11.97
2023-05-16T02:50:06.873Z,11.99
2023-05-16T02:52:36.020Z,12.00
2023-05-16T02:55:20.912Z,12.03
2023-05-16T02:57:50.488Z,12.07
2023-05-16T03:00:18.790Z,12.11
2023-05-16T03:02:46.760Z,12.16
2023-05-16T03:05:14.636Z,12.21
2023-05-16T03:07:42.703Z,12.26
2023-05-16T03:10:10.832Z,12.31
2023-05-16T03:12:39.258Z,12.36
2023-05-16T03:15:08.979Z,12.41
2023-05-16T03:17:37.645Z,12.46
2023-05-16T03:20:08.632Z,12.52
2023-05-16T03:22:36.962Z,12.57
2023-05-16T03:25:05.426Z,12.62
2023-05-16T03:27:33.097Z,12.68
2023-05-16T03:30:00.900Z,12.74
2023-05-16T03:32:28.447Z,12.79
2023-05-16T03:34:55.952Z,12.86
2023-05-16T03:37:24.319Z,12.93
2023-05-16T03:39:52.078Z,13.00
2023-05-16T03:42:19.740Z,13.07
2023-05-16T03:44:47.375Z,13.15
2023-05-16T03:47:14.606Z,13.22
2023-05-16T03:49:42.738Z,13.29
2023-05-16T03:52:10.245Z,13.36
2023-05-16T03:54:37.673Z,13.43
2023-05-16T03:57:05.797Z,13.49
2023-05-16T03:59:34.343Z,13.55
2023-05-16T04:02:01.866Z,13.59
2023-05-16T04:04:30.083Z,13.64
2023-05-16T04:06:57.758Z,13.68
2023-05-16T04:09:25.137Z,13.73
2023-05-16T04:11:52.570Z,13.78
2023-05-16T04:14:20.508Z,13.85
2023-05-16T04:16:47.973Z,13.91
2023-05-16T04:19:15.730Z,13.98
2023-05-16T04:21:43.186Z,14.06
2023-05-16T04:24:10.646Z,14.14
2023-05-16T04:26:38.112Z,14.21
2023-05-16T04:29:05.904Z,14.28
2023-05-16T04:31:33.400Z,14.34
2023-05-16T04:34:01.191Z,14.40
2023-05-16T04:36:29.938Z,14.46
2023-05-16T04:38:57.585Z,14.50
2023-05-16T04:41:25.127Z,14.56
2023-05-16T04:43:53.491Z,14.61
2023-05-16T04:46:20.968Z,14.64
2023-05-16T04:48:48.929Z,14.69
2023-05-16T04:51:16.299Z,14.73
2023-05-16T04:53:43.996Z,14.78
2023-05-16T04:56:11.737Z,14.82
2023-05-16T04:58:41.068Z,14.87
2023-05-16T05:01:10.496Z,14.94
2023-05-16T05:03:38.049Z,15.00
2023-05-16T05:06:06.671Z,15.07
2023-05-16T05:08:34.300Z,15.13
2023-05-16T05:11:01.956Z,15.18
2023-05-16T05:13:29.602Z,15.24
2023-05-16T05:15:57.221Z,15.30
2023-05-16T05:18:24.824Z,15.36
2023-05-16T05:20:52.453Z,15.40
2023-05-16T05:23:20.590Z,15.45
2023-05-16T05:25:48.034Z,15.48
2023-05-16T05:28:16.019Z,15.51
2023-05-16T05:30:43.575Z,15.54
2023-05-16T05:33:14.780Z,15.57
2023-05-16T05:35:42.319Z,15.59
2023-05-16T05:38:10.836Z,15.62
2023-05-16T05:40:38.414Z,15.65
2023-05-16T05:43:06.206Z,15.70
2023-05-16T05:45:33.928Z,15.75
2023-05-16T05:48:01.702Z,15.81
2023-05-16T05:50:29.568Z,15.88
2023-05-16T05:52:57.010Z,15.95
2023-05-16T05:55:24.564Z,16.03
2023-05-16T05:57:52.275Z,16.10
2023-05-16T06:00:19.732Z,16.17
2023-05-16T06:02:47.954Z,16.25
2023-05-16T06:05:16.065Z,16.34
2023-05-16T06:07:43.597Z,16.40
2023-05-16T06:10:11.079Z,16.43
2023-05-16T06:12:39.192Z,16.44
2023-05-16T06:15:07.702Z,16.43
2023-05-16T06:17:36.049Z,16.43
2023-05-16T06:20:03.852Z,16.42
2023-05-16T06:22:32.434Z,16.40
2023-05-16T06:25:00.148Z,16.38
2023-05-16T06:27:27.655Z,16.35
2023-05-16T06:29:55.191Z,16.34
2023-05-16T06:32:22.686Z,16.31
2023-05-16T06:34:50.304Z,16.26
2023-05-16T06:37:17.912Z,16.22
2023-05-16T06:39:45.327Z,16.15
2023-05-16T06:42:13.007Z,16.10
2023-05-16T06:44:40.928Z,16.06
2023-05-16T06:47:08.587Z,16.04
2023-05-16T06:49:36.274Z,16.05
2023-05-16T06:52:04.149Z,16.08
2023-05-16T06:54:32.072Z,16.12
2023-05-16T06:56:59.548Z,16.16
2023-05-16T06:59:28.123Z,16.20
2023-05-16T07:01:55.974Z,16.23
2023-05-16T07:04:23.597Z,16.25
2023-05-16T07:06:51.033Z,16.25
2023-05-16T07:09:19.137Z,16.25
2023-05-16T07:11:46.788Z,16.23
2023-05-16T07:14:14.216Z,16.21
2023-05-16T07:16:41.951Z,16.19
2023-05-16T07:19:10.308Z,16.17
2023-05-16T07:21:38.329Z,16.14
2023-05-16T07:24:06.437Z,16.13
2023-05-16T07:26:33.946Z,16.14
2023-05-16T07:29:02.659Z,16.14
2023-05-16T07:31:31.094Z,16.15
2023-05-16T07:33:58.695Z,16.15
2023-05-16T07:36:26.314Z,16.12
2023-05-16T07:38:53.889Z,16.11
2023-05-16T07:41:21.860Z,16.10
2023-05-16T07:43:49.359Z,16.09
2023-05-16T07:46:16.892Z,16.09
2023-05-16T07:48:44.401Z,16.10
2023-05-16T07:51:12.251Z,16.10
2023-05-16T07:53:40.218Z,16.12
2023-05-16T07:56:08.729Z,16.13
2023-05-16T07:58:36.549Z,16.14
2023-05-16T08:01:04.310Z,16.14
2023-05-16T08:03:32.860Z,16.15
2023-05-16T08:06:00.764Z,16.17
2023-05-16T08:08:29.079Z,16.18
2023-05-16T08:10:56.719Z,16.21
2023-05-16T08:13:24.457Z,16.23
2023-05-16T08:15:52.436Z,16.27
2023-05-16T08:18:22.460Z,16.30
2023-05-16T08:20:51.152Z,16.33
2023-05-16T08:23:18.996Z,16.35
2023-05-16T08:25:46.731Z,16.38
2023-05-16T08:28:15.091Z,16.39
2023-05-16T08:30:43.418Z,16.41
2023-05-16T08:33:11.915Z,16.41
2023-05-16T08:35:43.960Z,16.43
2023-05-16T08:38:11.607Z,16.44
2023-05-16T08:40:39.957Z,16.48
2023-05-16T08:43:07.594Z,16.51
2023-05-16T08:45:35.436Z,16.56
2023-05-16T08:48:03.446Z,16.63
2023-05-16T08:50:32.221Z,16.69
2023-05-16T08:53:02.016Z,16.73
2023-05-16T08:55:29.662Z,16.72
2023-05-16T08:57:58.016Z,16.71
2023-05-16T09:00:25.718Z,16.70
2023-05-16T09:02:53.554Z,16.70
2023-05-16T09:05:21.790Z,16.68
2023-05-16T09:07:50.325Z,16.66
2023-05-16T09:10:18.163Z,16.68
2023-05-16T09:12:45.968Z,16.69
2023-05-16T09:15:13.781Z,16.69
2023-05-16T09:17:46.435Z,16.68
2023-05-16T09:20:16.201Z,16.65
2023-05-16T09:22:51.827Z,16.61
2023-05-16T09:25:29.472Z,16.56
2023-05-16T09:28:00.968Z,16.52
2023-05-16T09:30:30.200Z,16.49
2023-05-16T09:32:59.033Z,16.46
2023-05-16T09:37:57.446Z,16.41
2023-05-16T09:40:25.387Z,16.38
2023-05-16T09:43:14.636Z,16.35
2023-05-16T09:45:46.003Z,16.35
2023-05-16T09:48:14.456Z,16.38
2023-05-16T09:50:46.355Z,16.42
2023-05-16T09:53:13.993Z,16.48
2023-05-16T09:55:41.745Z,16.56
2023-05-16T09:58:09.654Z,16.64
2023-05-16T10:00:37.882Z,16.73
2023-05-16T10:03:06.357Z,16.83
2023-05-16T10:05:34.576Z,16.92
2023-05-16T10:08:02.884Z,17.01
2023-05-16T10:10:30.662Z,17.12
2023-05-16T10:12:59.013Z,17.23
2023-05-16T10:15:27.344Z,17.32
2023-05-16T10:17:56.264Z,17.38
2023-05-16T10:20:24.071Z,17.43
2023-05-16T10:22:51.650Z,17.46
2023-05-16T10:25:33.286Z,17.52
2023-05-16T10:28:04.053Z,17.59
2023-05-16T10:30:34.346Z,17.65
2023-05-16T10:33:02.440Z,17.69
2023-05-16T10:35:31.452Z,17.69
2023-05-16T10:37:59.001Z,17.68
2023-05-16T10:40:27.080Z,17.69
2023-05-16T10:43:00.742Z,17.75
2023-05-16T10:45:28.755Z,17.85
2023-05-16T10:48:01.254Z,17.98
2023-05-16T10:50:39.555Z,18.10
2023-05-16T10:53:18.491Z,18.19
2023-05-16T10:56:01.732Z,18.23
2023-05-16T10:58:38.850Z,18.23
2023-05-16T11:01:20.454Z,18.18
2023-05-16T11:03:53.953Z,18.07
2023-05-16T11:06:42.415Z,17.92
2023-05-16T11:09:16.071Z,17.79
2023-05-16T11:11:53.275Z,17.72
2023-05-16T11:14:31.928Z,17.64
2023-05-16T11:17:15.854Z,17.55
2023-05-16T11:19:55.797Z,17.44
2023-05-16T11:22:30.222Z,17.35
2023-05-16T11:25:07.486Z,17.27
2023-05-16T11:27:37.439Z,17.20
2023-05-16T11:30:05.186Z,17.17
2023-05-16T11:32:34.675Z,17.14
2023-05-16T11:35:03.681Z,17.13
2023-05-16T11:37:31.343Z,17.12
2023-05-16T11:40:09.668Z,17.12
2023-05-16T11:42:42.531Z,17.12
2023-05-16T11:45:29.032Z,17.14
2023-05-16T11:48:04.294Z,17.15
2023-05-16T11:50:34.099Z,17.14
2023-05-16T11:53:02.122Z,17.13
2023-05-16T11:55:41.414Z,17.14
2023-05-16T11:58:14.142Z,17.16
2023-05-16T12:00:49.639Z,17.18
2023-05-16T12:03:18.612Z,17.18
2023-05-16T12:05:53.249Z,17.20
2023-05-16T12:08:25.076Z,17.21
2023-05-16T12:10:53.336Z,17.22
2023-05-16T12:13:23.174Z,17.24
2023-05-16T12:15:52.509Z,17.26
2023-05-16T12:18:21.565Z,17.25
2023-05-16T12:20:49.479Z,17.23
2023-05-16T12:23:17.415Z,17.25
2023-05-16T12:25:46.406Z,17.28
2023-05-16T12:28:14.496Z,17.33
2023-05-16T12:30:43.052Z,17.36
2023-05-16T12:33:12.820Z,17.38
2023-05-16T12:35:42.092Z,17.37
2023-05-16T12:38:11.937Z,17.36
2023-05-16T12:40:42.498Z,17.35
2023-05-16T12:43:16.890Z,17.36
2023-05-16T12:45:50.707Z,17.39
2023-05-16T12:48:18.566Z,17.42
2023-05-16T12:50:46.330Z,17.48
2023-05-16T12:53:14.547Z,17.55
2023-05-16T12:55:42.809Z,17.61
2023-05-16T12:58:11.303Z,17.67
2023-05-16T13:00:39.158Z,17.73
2023-05-16T13:03:07.506Z,17.81
2023-05-16T13:05:35.869Z,17.91
2023-05-16T13:08:04.135Z,18.01
2023-05-16T13:10:31.937Z,18.04
2023-05-16T13:12:59.653Z,18.04
2023-05-16T13:15:27.482Z,18.03
2023-05-16T13:17:55.599Z,18.02
2023-05-16T13:20:23.483Z,17.99
2023-05-16T13:22:50.930Z,17.95
2023-05-16T13:25:20.079Z,17.94
2023-05-16T13:27:49.181Z,17.94
2023-05-16T13:30:16.790Z,17.94
2023-05-16T13:32:44.636Z,17.93
2023-05-16T13:35:12.147Z,17.91
2023-05-16T13:37:41.188Z,17.87
2023-05-16T13:40:10.012Z,17.84
2023-05-16T13:42:38.418Z,17.80
2023-05-16T13:45:06.893Z,17.77
2023-05-16T13:47:36.598Z,17.75
2023-05-16T13:50:08.906Z,17.74
2023-05-16T13:52:38.124Z,17.73
2023-05-16T13:55:06.573Z,17.72
2023-05-16T13:57:35.762Z,17.72
2023-05-16T14:00:35.104Z,17.70
2023-05-16T14:02:59.768Z,17.67
2023-05-16T14:05:28.711Z,17.63
2023-05-16T14:07:56.436Z,17.58
2023-05-16T14:10:24.357Z,17.53
2023-05-16T14:12:52.044Z,17.48
2023-05-16T14:15:21.024Z,17.44
2023-05-16T14:17:48.475Z,17.41
2023-05-16T14:20:16.340Z,17.39
2023-05-16T14:22:44.242Z,17.39
2023-05-16T14:25:11.717Z,17.40
2023-05-16T14:27:40.044Z,17.42
2023-05-16T14:30:09.336Z,17.43
2023-05-16T14:32:37.971Z,17.45
2023-05-16T14:35:06.419Z,17.47
2023-05-16T14:37:34.073Z,17.48
2023-05-16T14:40:02.154Z,17.50
2023-05-16T14:42:29.934Z,17.50
2023-05-16T14:44:57.693Z,17.49
2023-05-16T14:47:25.264Z,17.49
2023-05-16T14:49:54.099Z,17.49
2023-05-16T14:52:22.430Z,17.49
2023-05-16T14:54:49.896Z,17.50
2023-05-16T14:57:17.519Z,17.52
2023-05-16T14:59:45.273Z,17.53
2023-05-16T15:02:12.895Z,17.55
2023-05-16T15:04:40.655Z,17.57
2023-05-16T15:07:08.282Z,17.60
2023-05-16T15:09:36.370Z,17.64
2023-05-16T15:12:06.280Z,17.67
2023-05-16T15:14:33.893Z,17.68
2023-05-16T15:17:01.502Z,17.68
2023-05-16T15:19:29.414Z,17.70
2023-05-16T15:21:57.339Z,17.73
2023-05-16T15:24:24.791Z,17.77
2023-05-16T15:26:52.777Z,17.79
2023-05-16T15:29:20.856Z,17.80
2023-05-16T15:31:48.313Z,17.78
2023-05-16T15:34:15.841Z,17.76
2023-05-16T15:36:43.216Z,17.74
2023-05-16T15:39:10.674Z,17.72
2023-05-16T15:42:05.165Z,17.70
2023-05-16T15:44:26.219Z,17.67
2023-05-16T15:46:53.905Z,17.65
2023-05-16T15:49:22.043Z,17.63
2023-05-16T15:51:50.564Z,17.63
2023-05-16T15:54:17.919Z,17.62
2023-05-16T15:56:45.429Z,17.61
2023-05-16T15:59:13.289Z,17.59
2023-05-16T16:01:41.151Z,17.58
2023-05-16T16:04:08.761Z,17.56
2023-05-16T16:06:36.256Z,17.53
2023-05-16T16:09:03.887Z,17.49
2023-05-16T16:11:32.851Z,17.45
2023-05-16T16:14:00.499Z,17.42
2023-05-16T16:16:28.243Z,17.39
2023-05-16T16:18:55.892Z,17.35
2023-05-16T16:21:23.710Z,17.31
2023-05-16T16:23:51.403Z,17.27
2023-05-16T16:26:18.885Z,17.24
2023-05-16T16:28:46.955Z,17.21
2023-05-16T16:31:14.516Z,17.18
2023-05-16T16:33:42.085Z,17.16
2023-05-16T16:36:09.868Z,17.13
2023-05-16T16:38:37.432Z,17.10
2023-05-16T16:41:04.874Z,17.07
2023-05-16T16:43:33.888Z,17.04
2023-05-16T16:46:01.391Z,17.01
2023-05-16T16:48:29.056Z,16.99
2023-05-16T16:50:56.535Z,16.96
2023-05-16T16:53:24.477Z,16.93
2023-05-16T16:55:52.936Z,16.92
2023-05-16T16:58:21.125Z,16.89
2023-05-16T17:00:49.268Z,16.86
2023-05-16T17:03:17.701Z,16.80
2023-05-16T17:05:45.309Z,16.74
2023-05-16T17:08:13.116Z,16.69
2023-05-16T17:10:40.756Z,16.63
2023-05-16T17:13:10.555Z,16.59
2023-05-16T17:15:38.476Z,16.55
2023-05-16T17:18:09.119Z,16.52
2023-05-16T17:20:36.644Z,16.49
2023-05-16T17:23:04.349Z,16.46
2023-05-16T17:25:32.189Z,16.43
2023-05-16T17:28:00.077Z,16.41
2023-05-16T17:30:27.690Z,16.40
2023-05-16T17:32:55.573Z,16.37
2023-05-16T17:35:23.617Z,16.35
2023-05-16T17:37:51.306Z,16.34
2023-05-16T17:40:18.955Z,16.32
2023-05-16T17:42:46.816Z,16.30
2023-05-16T17:45:15.688Z,16.28
2023-05-16T17:47:44.213Z,16.26
2023-05-16T17:50:12.273Z,16.24
2023-05-16T17:52:40.389Z,16.21
2023-05-16T17:55:09.351Z,16.19
2023-05-16T17:57:38.005Z,16.17
2023-05-16T18:00:07.061Z,16.14
2023-05-16T18:02:38.162Z,16.12
2023-05-16T18:05:07.018Z,16.10
2023-05-16T18:07:35.632Z,16.08
2023-05-16T18:10:03.993Z,16.07
2023-05-16T18:12:32.242Z,16.05
2023-05-16T18:14:59.910Z,16.03
2023-05-16T18:17:27.935Z,16.01
2023-05-16T18:19:55.756Z,15.99
2023-05-16T18:22:23.709Z,15.98
2023-05-16T18:24:51.863Z,15.95
2023-05-16T18:27:19.612Z,15.93
2023-05-16T18:29:47.550Z,15.91
2023-05-16T18:32:16.072Z,15.88
2023-05-16T18:34:44.147Z,15.85
2023-05-16T18:37:11.853Z,15.83
2023-05-16T18:39:41.510Z,15.80
2023-05-16T18:42:10.302Z,15.77
2023-05-16T18:44:37.925Z,15.76
2023-05-16T18:47:06.203Z,15.72
2023-05-16T18:49:38.735Z,15.70
2023-05-16T18:52:10.499Z,15.67
2023-05-16T18:54:38.658Z,15.64
2023-05-16T18:57:06.717Z,15.61
2023-05-16T18:59:35.857Z,15.56
2023-05-16T19:02:04.397Z,15.52
2023-05-16T19:04:32.682Z,15.48
2023-05-16T19:07:03.031Z,15.44
2023-05-16T19:09:32.503Z,15.39
2023-05-16T19:11:59.945Z,15.35
2023-05-16T19:14:28.089Z,15.32
2023-05-16T19:16:55.868Z,15.28
2023-05-16T19:19:24.191Z,15.24
2023-05-16T19:21:52.301Z,15.21
2023-05-16T19:24:19.837Z,15.17
2023-05-16T19:26:47.262Z,15.13
2023-05-16T19:29:14.806Z,15.09
2023-05-16T19:31:42.258Z,15.04
2023-05-16T19:34:09.966Z,14.99
2023-05-16T19:36:37.946Z,14.94
2023-05-16T19:39:05.817Z,14.89
2023-05-16T19:41:34.046Z,14.84
2023-05-16T19:44:01.480Z,14.80
2023-05-16T19:46:29.332Z,14.76
2023-05-16T19:48:57.085Z,14.72
2023-05-16T19:51:40.209Z,14.68
2023-05-16T19:54:09.132Z,14.63
2023-05-16T19:56:36.803Z,14.60
2023-05-16T19:59:04.267Z,14.55
2023-05-16T20:01:33.580Z,14.51
2023-05-16T20:04:02.299Z,14.47
2023-05-16T20:06:31.335Z,14.40
2023-05-16T20:08:58.888Z,14.34
2023-05-16T20:11:26.585Z,14.27
2023-05-16T20:13:55.515Z,14.20
2023-05-16T20:16:23.150Z,14.14
2023-05-16T20:18:51.285Z,14.06
2023-05-16T20:21:19.231Z,13.98
2023-05-16T20:23:46.690Z,13.90
2023-05-16T20:26:15.017Z,13.83
2023-05-16T20:28:42.506Z,13.74
2023-05-16T20:31:09.910Z,13.67
2023-05-16T20:33:37.553Z,13.59
2023-05-16T20:36:05.528Z,13.51
2023-05-16T20:38:33.079Z,13.45
2023-05-16T20:41:00.706Z,13.39
2023-05-16T20:43:28.118Z,13.33
2023-05-16T20:45:56.107Z,13.26
2023-05-16T20:48:23.732Z,13.18
2023-05-16T20:50:54.741Z,13.11
2023-05-16T20:53:22.542Z,13.04
2023-05-16T20:55:50.083Z,12.98
2023-05-16T20:58:17.553Z,12.94
2023-05-16T21:00:44.968Z,12.90
2023-05-16T21:03:12.843Z,12.87
2023-05-16T21:05:40.825Z,12.84
2023-05-16T21:08:09.013Z,12.82
2023-05-16T21:10:36.437Z,12.79
2023-05-16T21:13:03.970Z,12.75
2023-05-16T21:15:31.601Z,12.71
2023-05-16T21:17:59.245Z,12.67
2023-05-16T21:20:29.813Z,12.64
2023-05-16T21:22:57.481Z,12.60
2023-05-16T21:25:25.181Z,12.56
2023-05-16T21:27:53.175Z,12.53
2023-05-16T21:30:20.707Z,12.48
2023-05-16T21:32:48.544Z,12.44
2023-05-16T21:35:16.233Z,12.40
2023-05-16T21:37:44.275Z,12.37
2023-05-16T21:40:18.694Z,12.37
2023-05-16T21:42:46.287Z,12.36
2023-05-16T21:45:16.218Z,12.37
2023-05-16T21:47:43.859Z,12.40
2023-05-16T21:50:11.967Z,12.42
2023-05-16T21:52:39.591Z,12.45
2023-05-16T21:55:07.890Z,12.47
2023-05-16T21:57:35.581Z,12.50
2023-05-16T22:00:06.459Z,12.54
2023-05-16T22:02:36.535Z,12.56
2023-05-16T22:05:04.658Z,12.60
2023-05-16T22:07:32.670Z,12.63
2023-05-16T22:10:00.820Z,12.68
2023-05-16T22:12:29.466Z,12.72
2023-05-16T22:14:57.265Z,12.74
2023-05-16T22:17:25.002Z,12.76
2023-05-16T22:19:52.796Z,12.76
2023-05-16T22:22:20.560Z,12.77
2023-05-16T22:24:48.390Z,12.78
2023-05-16T22:27:15.922Z,12.79
2023-05-16T22:29:43.563Z,12.82
2023-05-16T22:32:11.456Z,12.84
2023-05-16T22:34:39.418Z,12.85
2023-05-16T22:37:08.182Z,12.88
2023-05-16T22:39:36.100Z,12.90
2023-05-16T22:42:04.018Z,12.92
2023-05-16T22:44:31.863Z,12.93
2023-05-16T22:46:59.430Z,12.94
2023-05-16T22:49:26.914Z,12.96
2023-05-16T22:51:54.497Z,12.97
2023-05-16T22:54:22.096Z,12.99
2023-05-16T22:56:49.562Z,13.01
2023-05-16T22:59:17.035Z,13.03
2023-05-16T23:01:44.617Z,13.03
2023-05-16T23:04:12.294Z,13.04
2023-05-16T23:06:40.192Z,13.05
2023-05-16T23:09:08.181Z,13.05
2023-05-16T23:11:35.809Z,13.06
2023-05-16T23:14:03.837Z,13.07
2023-05-16T23:16:31.455Z,13.07
2023-05-16T23:18:59.292Z,13.08
2023-05-16T23:21:27.248Z,13.08
2023-05-16T23:23:54.775Z,13.07
2023-05-16T23:26:23.279Z,13.05
2023-05-16T23:28:51.201Z,13.02
2023-05-16T23:31:19.020Z,13.00
2023-05-16T23:33:46.555Z,12.98
2023-05-16T23:36:14.431Z,12.98
2023-05-16T23:38:42.369Z,12.99
2023-05-16T23:41:10.602Z,13.01
2023-05-16T23:43:38.243Z,13.05
2023-05-16T23:46:06.202Z,13.08
2023-05-16T23:48:36.347Z,13.11
2023-05-16T23:51:07.240Z,13.13
2023-05-16T23:53:35.397Z,13.15
2023-05-16T23:56:03.104Z,13.15
2023-05-16T23:58:31.379Z,13.14
